Terminal Aerodrome Forecast
Issued by NWS

Home | Current Version | Previous Version | Graphics & Text | Print | Product List | Glossary On
Versions: 1 2 3 4 5 6 7 8 9 10 11 12 13 14 15 16 17 18
000
FTUS43 KGRB 261311 AAA
TAFATW
TAF AMD
KATW 261311Z 2613/2712 28009G16KT P6SM BKN012
      TEMPO 2613/2615 SCT012
     FM261500 30014G22KT P6SM BKN035
      TEMPO 2618/2622 -SHRA BKN020
     FM262200 32012G20KT P6SM VCSH BKN035
     FM270000 32010KT P6SM FEW040 BKN100
     FM270300 27004KT P6SM SCT100=

USA.gov is the U.S. government's official web portal to all federal, state and local government web resources and services.